createdAt,value
2018-12-13T00:01:44.641Z,98373.44
2018-12-13T00:04:13.352Z,98372.55
2018-12-13T00:06:42.142Z,98371.36
2018-12-13T00:09:10.885Z,98367.08
2018-12-13T00:11:39.591Z,98364.48
2018-12-13T00:14:08.444Z,98364.06
2018-12-13T00:16:37.132Z,98364.39
2018-12-13T00:19:05.844Z,98363.97
2018-12-13T00:21:34.639Z,98361.56
2018-12-13T00:24:03.462Z,98359.42
2018-12-13T00:26:32.141Z,98370.09
2018-12-13T00:29:00.934Z,98357.28
2018-12-13T00:31:29.699Z,98358.66
2018-12-13T00:33:58.478Z,98354.91
2018-12-13T00:36:27.197Z,98357.28
2018-12-13T00:38:55.919Z,98355.95
2018-12-13T00:41:24.921Z,98351.39
2018-12-13T00:43:53.646Z,98345.61
2018-12-13T00:46:22.512Z,98342.66
2018-12-13T00:48:51.283Z,98345.94
2018-12-13T00:51:20.002Z,98348.21
2018-12-13T00:53:48.823Z,98346.17
2018-12-13T00:56:17.496Z,98342.89
2018-12-13T00:58:46.207Z,98336.05
2018-12-13T01:01:15.138Z,98341.22
2018-12-13T01:03:43.853Z,98339.87
2018-12-13T01:06:12.639Z,98339.92
2018-12-13T01:08:41.519Z,98339.83
2018-12-13T01:11:10.329Z,98342.95
2018-12-13T01:13:39.002Z,98341.00
2018-12-13T01:16:09.931Z,98337.22
2018-12-13T01:18:38.735Z,98341.00
2018-12-13T01:21:07.425Z,98339.77
2018-12-13T01:23:36.259Z,98344.05
2018-12-13T01:26:04.996Z,98335.50
2018-12-13T01:28:33.759Z,98340.48
2018-12-13T01:31:02.470Z,98336.17
2018-12-13T01:33:31.183Z,98329.48
2018-12-13T01:35:59.972Z,98325.64
2018-12-13T01:38:28.858Z,98321.80
2018-12-13T01:40:57.657Z,98328.88
2018-12-13T01:43:26.432Z,98327.86
2018-12-13T01:45:55.151Z,98317.63
2018-12-13T01:48:23.927Z,98314.31
2018-12-13T01:50:52.711Z,98301.30
2018-12-13T01:53:21.486Z,98305.28
2018-12-13T01:55:50.266Z,98312.26
2018-12-13T01:58:19.084Z,98305.95
2018-12-13T02:00:47.842Z,98303.02
2018-12-13T02:03:16.517Z,98302.41
2018-12-13T02:05:45.483Z,98297.95
2018-12-13T02:08:14.168Z,98302.88
2018-12-13T02:10:43.003Z,98297.03
2018-12-13T02:13:11.951Z,98294.09
2018-12-13T02:15:40.687Z,98292.30
2018-12-13T02:18:09.380Z,98301.59
2018-12-13T02:20:38.245Z,98302.77
2018-12-13T02:23:07.023Z,98296.45
2018-12-13T02:25:35.720Z,98298.36
2018-12-13T02:28:04.441Z,98300.73
2018-12-13T02:30:33.150Z,98298.30
2018-12-13T02:33:01.866Z,98296.99
2018-12-13T02:35:30.538Z,98300.34
2018-12-13T02:37:59.216Z,98305.34
2018-12-13T02:40:27.977Z,98302.86
2018-12-13T02:42:56.752Z,98303.30
2018-12-13T02:45:25.459Z,98304.30
2018-12-13T02:47:54.187Z,98300.73
2018-12-13T02:50:22.916Z,98296.35
2018-12-13T02:52:51.790Z,98296.28
2018-12-13T02:55:21.215Z,98295.38
2018-12-13T02:57:49.984Z,98291.53
2018-12-13T03:00:18.703Z,98291.11
2018-12-13T03:02:47.504Z,98284.28
2018-12-13T03:05:16.962Z,98278.98
2018-12-13T03:07:45.849Z,98273.23
2018-12-13T03:10:14.550Z,98274.19
2018-12-13T03:12:43.502Z,98275.46
2018-12-13T03:15:12.241Z,98275.41
2018-12-13T03:17:41.016Z,98275.59
2018-12-13T03:20:09.743Z,98275.66
2018-12-13T03:22:38.432Z,98275.80
2018-12-13T03:25:07.210Z,98274.70
2018-12-13T03:27:35.931Z,98272.42
2018-12-13T03:30:05.426Z,98260.23
2018-12-13T03:32:34.204Z,98265.11
2018-12-13T03:35:02.927Z,98262.59
2018-12-13T03:37:31.611Z,98264.10
2018-12-13T03:40:00.351Z,98265.28
2018-12-13T03:42:29.349Z,98257.61
2018-12-13T03:44:58.028Z,98263.70
2018-12-13T03:47:26.818Z,98252.05
2018-12-13T03:49:55.789Z,98253.63
2018-12-13T03:52:24.536Z,98252.07
2018-12-13T03:54:53.383Z,98246.53
2018-12-13T03:57:22.081Z,98244.89
2018-12-13T03:59:50.890Z,98245.09
2018-12-13T04:02:19.697Z,98247.92
2018-12-13T04:04:48.451Z,98247.72
2018-12-13T04:07:17.204Z,98243.05
2018-12-13T04:09:46.033Z,98247.66
2018-12-13T04:12:14.745Z,98244.14
2018-12-13T04:14:43.763Z,98242.01
2018-12-13T04:17:12.783Z,98238.98
2018-12-13T04:19:41.487Z,98233.54
2018-12-13T04:22:10.177Z,98239.57
2018-12-13T04:24:38.944Z,98233.06
2018-12-13T04:27:07.732Z,98232.78
2018-12-13T04:29:36.519Z,98228.95
2018-12-13T04:32:05.210Z,98230.91
2018-12-13T04:34:33.933Z,98227.63
2018-12-13T04:37:02.738Z,98221.62
2018-12-13T04:39:31.449Z,98231.89
2018-12-13T04:42:00.184Z,98217.61
2018-12-13T04:44:28.849Z,98217.33
2018-12-13T04:46:57.602Z,98213.44
2018-12-13T04:49:26.282Z,98206.94
2018-12-13T04:51:55.004Z,98202.30
2018-12-13T04:54:23.748Z,98203.57
2018-12-13T04:56:52.411Z,98201.55
2018-12-13T04:59:21.158Z,98204.75
2018-12-13T05:01:50.012Z,98208.33
2018-12-13T05:04:18.758Z,98210.11
2018-12-13T05:06:47.968Z,98203.97
2018-12-13T05:09:16.863Z,98197.80
2018-12-13T05:11:45.543Z,98201.69
2018-12-13T05:14:14.350Z,98203.42
2018-12-13T05:16:43.214Z,98198.21
2018-12-13T05:19:11.914Z,98192.41
2018-12-13T05:21:40.771Z,98186.58
2018-12-13T05:24:09.585Z,98184.29
2018-12-13T05:26:38.476Z,98190.25
2018-12-13T05:29:07.308Z,98174.91
2018-12-13T05:31:36.131Z,98182.20
2018-12-13T05:34:05.087Z,98179.45
2018-12-13T05:36:33.759Z,98175.58
2018-12-13T05:39:02.586Z,98171.80
2018-12-13T05:41:31.292Z,98175.84
2018-12-13T05:43:59.989Z,98173.70
2018-12-13T05:46:28.742Z,98174.57
2018-12-13T05:48:57.695Z,98167.83
2018-12-13T05:51:26.455Z,98160.71
2018-12-13T05:53:55.180Z,98170.11
2018-12-13T05:56:23.936Z,98171.06
2018-12-13T05:58:52.752Z,98161.17
2018-12-13T06:01:21.579Z,98163.77
2018-12-13T06:03:50.259Z,98158.42
2018-12-13T06:06:19.019Z,98157.33
2018-12-13T06:08:47.862Z,98150.61
2018-12-13T06:11:16.699Z,98151.04
2018-12-13T06:13:45.601Z,98151.31
2018-12-13T06:16:14.903Z,98149.77
2018-12-13T06:18:43.706Z,98155.48
2018-12-13T06:21:12.433Z,98151.13
2018-12-13T06:23:41.523Z,98148.34
2018-12-13T06:26:10.264Z,98160.70
2018-12-13T06:28:39.272Z,98157.42
2018-12-13T06:31:07.985Z,98163.16
2018-12-13T06:33:36.686Z,98168.95
2018-12-13T06:36:05.505Z,98160.98
2018-12-13T06:38:34.347Z,98173.63
2018-12-13T06:41:03.048Z,98171.40
2018-12-13T06:43:31.754Z,98171.55
2018-12-13T06:46:00.686Z,98182.33
2018-12-13T06:48:30.136Z,98184.25
2018-12-13T06:50:58.831Z,98178.84
2018-12-13T06:53:27.640Z,98177.72
2018-12-13T06:55:56.365Z,98178.58
2018-12-13T06:58:25.101Z,98174.83
2018-12-13T07:00:53.794Z,98171.98
2018-12-13T07:03:22.560Z,98170.19
2018-12-13T07:05:51.344Z,98170.28
2018-12-13T07:08:20.107Z,98175.72
2018-12-13T07:10:48.824Z,98177.11
2018-12-13T07:13:17.717Z,98177.48
2018-12-13T07:15:46.416Z,98177.72
2018-12-13T07:18:15.213Z,98175.78
2018-12-13T07:20:43.943Z,98181.90
2018-12-13T07:23:12.831Z,98172.95
2018-12-13T07:25:41.562Z,98177.63
2018-12-13T07:28:10.260Z,98185.90
2018-12-13T07:30:39.156Z,98178.84
2018-12-13T07:33:07.875Z,98172.98
2018-12-13T07:35:37.189Z,98172.13
2018-12-13T07:38:05.913Z,98167.97
2018-12-13T07:40:35.451Z,98171.34
2018-12-13T07:43:04.239Z,98165.39
2018-12-13T07:45:33.069Z,98173.55
2018-12-13T07:48:01.817Z,98168.14
2018-12-13T07:50:30.593Z,98166.82
2018-12-13T07:52:59.303Z,98168.52
2018-12-13T07:55:28.054Z,98165.91
2018-12-13T07:57:56.862Z,98150.84
2018-12-13T08:00:26.052Z,98154.21
2018-12-13T08:02:54.776Z,98157.58
2018-12-13T08:05:24.184Z,98155.25
2018-12-13T08:07:53.302Z,98152.98
2018-12-13T08:10:22.029Z,98146.02
2018-12-13T08:12:50.743Z,98151.04
2018-12-13T08:15:19.691Z,98161.27
2018-12-13T08:17:49.279Z,98159.13
2018-12-13T08:20:18.277Z,98156.63
2018-12-13T08:22:47.291Z,98153.51
2018-12-13T08:25:16.216Z,98152.27
2018-12-13T08:27:45.256Z,98149.81
2018-12-13T08:30:14.280Z,98149.81
2018-12-13T08:32:43.159Z,98159.28
2018-12-13T08:35:12.169Z,98154.16
2018-12-13T08:37:41.231Z,98145.52
2018-12-13T08:40:10.347Z,98145.83
2018-12-13T08:42:39.557Z,98144.77
2018-12-13T08:45:08.624Z,98145.12
2018-12-13T08:47:37.724Z,98141.84
2018-12-13T08:50:07.341Z,98139.75
2018-12-13T08:52:36.424Z,98146.72
2018-12-13T08:55:05.824Z,98140.51
2018-12-13T08:57:34.851Z,98141.41
2018-12-13T09:00:03.973Z,98145.00
2018-12-13T09:02:33.075Z,98136.09
2018-12-13T09:05:02.215Z,98139.06
2018-12-13T09:07:31.432Z,98143.09
2018-12-13T09:10:00.460Z,98135.56
2018-12-13T09:12:29.561Z,98139.67
2018-12-13T09:14:58.791Z,98130.33
2018-12-13T09:17:28.210Z,98132.59
2018-12-13T09:19:57.626Z,98133.20
2018-12-13T09:22:26.603Z,98132.12
2018-12-13T09:24:55.824Z,98125.63
2018-12-13T09:27:24.745Z,98123.20
2018-12-13T09:29:53.727Z,98122.72
2018-12-13T09:32:23.028Z,98122.97
2018-12-13T09:34:52.176Z,98116.55
2018-12-13T09:37:21.293Z,98128.73
2018-12-13T09:39:50.496Z,98122.16
2018-12-13T09:42:19.506Z,98120.46
2018-12-13T09:44:48.431Z,98123.12
2018-12-13T09:47:19.125Z,98123.61
2018-12-13T09:49:48.146Z,98125.06
2018-12-13T09:52:17.247Z,98120.33
2018-12-13T09:54:46.386Z,98111.80
2018-12-13T09:57:18.155Z,98122.88
2018-12-13T09:59:47.155Z,98118.45
2018-12-13T10:02:16.083Z,98114.70
2018-12-13T10:04:45.682Z,98109.91
2018-12-13T10:07:14.855Z,98108.70
2018-12-13T10:09:43.920Z,98094.73
2018-12-13T10:12:13.445Z,98102.97
2018-12-13T10:14:42.520Z,98100.58
2018-12-13T10:17:11.673Z,98094.92
2018-12-13T10:19:40.834Z,98074.14
2018-12-13T10:22:11.867Z,98087.28
2018-12-13T10:24:40.887Z,98086.18
2018-12-13T10:27:09.890Z,98071.73
2018-12-13T10:29:39.034Z,98081.06
2018-12-13T10:32:15.511Z,98071.93
2018-12-13T10:34:44.424Z,98070.88
2018-12-13T10:37:13.759Z,98070.18
2018-12-13T10:39:42.874Z,98077.75
2018-12-13T10:42:12.807Z,98063.27
2018-12-13T10:44:42.708Z,98064.30
2018-12-13T10:47:11.784Z,98061.59
2018-12-13T10:49:40.988Z,98060.66
2018-12-13T10:52:10.663Z,98056.44
2018-12-13T10:54:39.730Z,98050.41
2018-12-13T10:57:08.964Z,98053.93
2018-12-13T10:59:38.009Z,98051.92
2018-12-13T11:02:11.118Z,98048.56
2018-12-13T11:04:40.130Z,98043.94
2018-12-13T11:07:09.251Z,98035.13
2018-12-13T11:09:38.328Z,98037.16
2018-12-13T11:12:07.248Z,98032.62
2018-12-13T11:14:36.495Z,98031.84
2018-12-13T11:17:05.538Z,98025.22
2018-12-13T11:19:34.358Z,98022.88
2018-12-13T11:22:03.377Z,98027.08
2018-12-13T11:24:32.254Z,98020.31
2018-12-13T11:28:14.623Z,98022.05
2018-12-13T11:30:44.043Z,98018.36
2018-12-13T11:33:13.334Z,98018.99
2018-12-13T11:35:42.411Z,98013.44
2018-12-13T11:38:11.296Z,98012.04
2018-12-13T11:40:40.327Z,98009.26
2018-12-13T11:43:09.383Z,98003.41
2018-12-13T11:45:38.316Z,98005.53
2018-12-13T11:48:07.368Z,98005.02
2018-12-13T11:50:36.656Z,98008.56
2018-12-13T11:53:05.565Z,98004.41
2018-12-13T11:55:37.563Z,98001.08
2018-12-13T11:58:08.503Z,98003.16
2018-12-13T12:00:38.231Z,98006.27
2018-12-13T12:03:07.791Z,98002.50
2018-12-13T12:05:37.333Z,98006.11
2018-12-13T12:08:06.902Z,98006.00
2018-12-13T12:10:36.415Z,98010.50
2018-12-13T12:13:05.892Z,98014.63
2018-12-13T12:15:35.669Z,98007.93
2018-12-13T12:18:05.332Z,98010.08
2018-12-13T12:20:34.791Z,98006.87
2018-12-13T12:23:04.258Z,98003.53
2018-12-13T12:25:34.031Z,98008.68
2018-12-13T12:28:03.430Z,98008.99
2018-12-13T12:30:32.979Z,98010.27
2018-12-13T12:33:02.785Z,98011.83
2018-12-13T12:35:32.434Z,98013.89
2018-12-13T12:38:02.147Z,98007.96
2018-12-13T12:40:32.122Z,98002.25
2018-12-13T12:43:01.370Z,98008.92
2018-12-13T12:45:30.570Z,98002.61
2018-12-13T12:48:00.267Z,98002.06
2018-12-13T12:50:30.356Z,97998.38
2018-12-13T12:53:00.064Z,98004.65
2018-12-13T12:55:29.966Z,98005.83
2018-12-13T12:57:59.783Z,98007.19
2018-12-13T13:00:29.771Z,97999.13
2018-12-13T13:02:59.548Z,98006.05
2018-12-13T13:05:29.267Z,97993.79
2018-12-13T13:07:58.967Z,97999.27
2018-12-13T13:10:28.642Z,97997.64
2018-12-13T13:12:58.375Z,97998.77
2018-12-13T13:15:28.256Z,98009.55
2018-12-13T13:17:57.887Z,98002.03
2018-12-13T13:20:27.674Z,98003.04
2018-12-13T13:22:57.716Z,98004.14
2018-12-13T13:25:27.662Z,98001.78
2018-12-13T13:27:57.343Z,98005.48
2018-12-13T13:30:27.094Z,98002.83
2018-12-13T13:32:56.639Z,98002.92
2018-12-13T13:35:26.697Z,98001.53
2018-12-13T13:37:56.470Z,98001.38
2018-12-13T13:40:26.225Z,97998.82
2018-12-13T13:42:56.002Z,98002.02
2018-12-13T13:45:26.131Z,97997.77
2018-12-13T13:47:56.110Z,98001.04
2018-12-13T13:50:26.722Z,98004.90
2018-12-13T13:52:56.627Z,98003.98
2018-12-13T13:55:26.416Z,98006.19
2018-12-13T13:57:56.044Z,98007.75
2018-12-13T14:00:25.806Z,98008.92
2018-12-13T14:02:55.331Z,98005.45
2018-12-13T14:05:25.256Z,98008.66
2018-12-13T14:07:54.870Z,98009.05
2018-12-13T14:10:24.814Z,98014.48
2018-12-13T14:12:54.267Z,98015.98
2018-12-13T14:15:24.291Z,98011.97
2018-12-13T14:17:53.807Z,98017.87
2018-12-13T14:20:23.856Z,98011.37
2018-12-13T14:22:53.851Z,98002.75
2018-12-13T14:25:23.748Z,98001.80
2018-12-13T14:27:53.579Z,98003.59
2018-12-13T14:30:24.022Z,98001.20
2018-12-13T14:32:53.922Z,97994.00
2018-12-13T14:35:23.723Z,98001.38
2018-12-13T14:37:52.716Z,97995.19
2018-12-13T14:40:21.797Z,97992.86
2018-12-13T14:42:51.019Z,98004.56
2018-12-13T14:45:20.148Z,98005.06
2018-12-13T14:47:49.312Z,98008.08
2018-12-13T14:50:18.386Z,98008.08
2018-12-13T14:52:47.639Z,98006.06
2018-12-13T14:55:16.787Z,98012.61
2018-12-13T14:57:45.900Z,98024.05
2018-12-13T15:00:15.168Z,98027.30
2018-12-13T15:02:44.255Z,98025.28
2018-12-13T15:05:13.833Z,98016.92
2018-12-13T15:07:42.970Z,98015.47
2018-12-13T15:10:12.175Z,98018.12
2018-12-13T15:12:41.244Z,98014.73
2018-12-13T15:15:11.120Z,98020.92
2018-12-13T15:17:40.316Z,98016.03
2018-12-13T15:20:09.486Z,98018.67
2018-12-13T15:22:38.655Z,98025.18
2018-12-13T15:25:08.191Z,98023.19
2018-12-13T15:27:37.332Z,98019.98
2018-12-13T15:30:09.664Z,98013.55
2018-12-13T15:32:38.907Z,98021.26
2018-12-13T15:35:07.845Z,98015.88
2018-12-13T15:37:37.067Z,98015.89
2018-12-13T15:40:07.273Z,98013.82
2018-12-13T15:42:36.688Z,98011.72
2018-12-13T15:45:06.856Z,98017.06
2018-12-13T15:47:36.056Z,98013.35
2018-12-13T15:50:05.545Z,98018.59
2018-12-13T15:52:34.371Z,98016.02
2018-12-13T15:55:03.778Z,98018.81
2018-12-13T15:57:33.236Z,98012.77
2018-12-13T16:00:02.301Z,98019.65
2018-12-13T16:02:31.323Z,98021.29
2018-12-13T16:05:00.343Z,98020.34
2018-12-13T16:07:29.404Z,98024.81
2018-12-13T16:10:03.877Z,98026.77
2018-12-13T16:12:29.525Z,98025.66
2018-12-13T16:14:58.960Z,98013.85
2018-12-13T16:17:28.319Z,98014.66
2018-12-13T16:19:57.392Z,98015.13
2018-12-13T16:22:26.240Z,98014.33
2018-12-13T16:24:55.247Z,98013.95
2018-12-13T16:27:24.327Z,98019.78
2018-12-13T16:29:53.379Z,98016.59
2018-12-13T16:32:22.416Z,98022.31
2018-12-13T16:34:52.488Z,98018.95
2018-12-13T16:37:21.531Z,98017.54
2018-12-13T16:39:50.593Z,98014.28
2018-12-13T16:42:19.619Z,98012.63
2018-12-13T16:44:48.747Z,98012.77
2018-12-13T16:47:17.921Z,98011.16
2018-12-13T16:49:47.030Z,98016.41
2018-12-13T16:52:16.009Z,98011.74
2018-12-13T16:54:45.016Z,98018.69
2018-12-13T16:57:14.101Z,98018.91
2018-12-13T16:59:43.215Z,98014.95
2018-12-13T17:02:12.194Z,98017.42
2018-12-13T17:04:41.421Z,98015.48
2018-12-13T17:07:10.514Z,98017.77
2018-12-13T17:09:39.466Z,98019.19
2018-12-13T17:12:08.813Z,98025.96
2018-12-13T17:14:37.717Z,98023.30
2018-12-13T17:17:07.781Z,98016.76
2018-12-13T17:19:36.861Z,98011.99
2018-12-13T17:22:06.000Z,98014.56
2018-12-13T17:24:35.105Z,98017.88
2018-12-13T17:27:04.086Z,98013.41
2018-12-13T17:29:33.077Z,98015.48
2018-12-13T17:32:02.607Z,98014.28
2018-12-13T17:34:31.809Z,98016.84
2018-12-13T17:37:00.981Z,98011.36
2018-12-13T17:39:30.281Z,98009.07
2018-12-13T17:41:59.479Z,98017.05
2018-12-13T17:44:28.393Z,98014.56
2018-12-13T17:46:57.353Z,98014.73
2018-12-13T17:49:26.619Z,98016.48
2018-12-13T17:51:55.953Z,98016.18
2018-12-13T17:54:25.243Z,98017.87
2018-12-13T17:56:54.258Z,98016.52
2018-12-13T17:59:23.362Z,98025.39
2018-12-13T18:01:52.359Z,98025.66
2018-12-13T18:04:21.453Z,98021.98
2018-12-13T18:06:50.409Z,98023.58
2018-12-13T18:09:19.545Z,98027.46
2018-12-13T18:11:48.538Z,98030.94
2018-12-13T18:14:17.559Z,98033.13
2018-12-13T18:16:46.924Z,98032.45
2018-12-13T18:19:15.836Z,98029.55
2018-12-13T18:21:44.951Z,98034.87
2018-12-13T18:24:13.945Z,98032.59
2018-12-13T18:26:43.048Z,98039.53
2018-12-13T18:29:12.067Z,98045.14
2018-12-13T18:31:41.226Z,98042.11
2018-12-13T18:34:10.195Z,98045.11
2018-12-13T18:36:39.395Z,98039.73
2018-12-13T18:39:09.024Z,98049.13
2018-12-13T18:41:38.097Z,98048.11
2018-12-13T18:44:07.364Z,98046.84
2018-12-13T18:46:36.834Z,98047.83
2018-12-13T18:49:05.886Z,98047.64
2018-12-13T18:51:34.785Z,98046.09
2018-12-13T18:54:03.791Z,98044.20
2018-12-13T18:56:32.853Z,98053.05
2018-12-13T18:59:01.891Z,98049.75
2018-12-13T19:01:31.117Z,98052.56
2018-12-13T19:04:00.128Z,98047.89
2018-12-13T19:06:29.510Z,98042.45
2018-12-13T19:08:58.680Z,98042.73
2018-12-13T19:11:27.589Z,98039.84
2018-12-13T19:13:56.552Z,98044.17
2018-12-13T19:16:25.639Z,98042.30
2018-12-13T19:18:54.587Z,98052.23
2018-12-13T19:21:23.648Z,98037.95
2018-12-13T19:23:52.648Z,98038.73
2018-12-13T19:26:21.636Z,98032.64
2018-12-13T19:28:50.741Z,98032.56
2018-12-13T19:31:19.700Z,98038.70
2018-12-13T19:33:48.828Z,98039.13
2018-12-13T19:36:17.869Z,98038.37
2018-12-13T19:38:46.779Z,98039.02
2018-12-13T19:41:16.085Z,98043.84
2018-12-13T19:43:45.297Z,98039.82
2018-12-13T19:46:14.335Z,98031.80
2018-12-13T19:48:43.940Z,98043.69
2018-12-13T19:51:13.130Z,98040.59
2018-12-13T19:53:42.494Z,98042.20
2018-12-13T19:56:11.640Z,98042.76
2018-12-13T19:58:40.848Z,98049.40
2018-12-13T20:01:09.804Z,98054.95
2018-12-13T20:03:38.828Z,98057.33
2018-12-13T20:06:08.958Z,98054.77
2018-12-13T20:08:38.106Z,98055.69
2018-12-13T20:11:07.280Z,98055.63
2018-12-13T20:13:36.307Z,98057.03
2018-12-13T20:16:05.380Z,98052.96
2018-12-13T20:18:34.501Z,98053.77
2018-12-13T20:21:03.884Z,98060.61
2018-12-13T20:23:32.930Z,98060.34
2018-12-13T20:26:02.099Z,98051.89
2018-12-13T20:28:31.183Z,98060.33
2018-12-13T20:31:00.285Z,98059.66
2018-12-13T20:33:29.572Z,98062.62
2018-12-13T20:35:58.810Z,98055.26
2018-12-13T20:38:27.661Z,98064.57
2018-12-13T20:41:00.929Z,98062.44
2018-12-13T20:43:27.780Z,98066.30
2018-12-13T20:45:56.917Z,98067.14
2018-12-13T20:48:26.072Z,98058.81
2018-12-13T20:50:55.127Z,98066.98
2018-12-13T20:53:24.381Z,98071.78
2018-12-13T20:55:53.397Z,98072.80
2018-12-13T20:58:22.389Z,98074.41
2018-12-13T21:00:53.261Z,98069.92
2018-12-13T21:03:22.240Z,98075.75
2018-12-13T21:05:51.274Z,98074.50
2018-12-13T21:08:20.585Z,98067.75
2018-12-13T21:10:49.648Z,98066.30
2018-12-13T21:13:18.992Z,98063.95
2018-12-13T21:15:48.064Z,98061.96
2018-12-13T21:18:16.831Z,98061.23
2018-12-13T21:20:46.096Z,98062.48
2018-12-13T21:23:15.088Z,98061.80
2018-12-13T21:25:44.285Z,98066.88
2018-12-13T21:28:13.411Z,98065.88
2018-12-13T21:30:42.478Z,98071.73
2018-12-13T21:33:11.712Z,98068.73
2018-12-13T21:35:40.676Z,98070.44
2018-12-13T21:38:09.708Z,98068.13
2018-12-13T21:40:38.772Z,98063.13
2018-12-13T21:43:07.844Z,98064.45
2018-12-13T21:45:36.999Z,98073.36
2018-12-13T21:48:06.034Z,98060.36
2018-12-13T21:50:35.163Z,98066.45
2018-12-13T21:53:04.125Z,98067.95
2018-12-13T21:55:33.139Z,98070.44
2018-12-13T21:58:02.212Z,98059.70
2018-12-13T22:00:31.342Z,98070.20
2018-12-13T22:03:00.215Z,98069.11
2018-12-13T22:05:29.221Z,98074.05
2018-12-13T22:07:58.238Z,98077.69
2018-12-13T22:10:27.508Z,98085.06
2018-12-13T22:12:56.555Z,98077.86
2018-12-13T22:15:25.813Z,98082.03
2018-12-13T22:17:54.899Z,98074.99
2018-12-13T22:20:23.975Z,98079.95
2018-12-13T22:22:52.992Z,98080.23
2018-12-13T22:25:22.316Z,98086.39
2018-12-13T22:27:51.436Z,98083.62
2018-12-13T22:30:20.672Z,98086.39
2018-12-13T22:32:49.668Z,98086.88
2018-12-13T22:35:18.698Z,98084.75
2018-12-13T22:37:48.808Z,98085.45
2018-12-13T22:40:18.061Z,98083.28
2018-12-13T22:42:47.067Z,98077.30
2018-12-13T22:45:16.104Z,98079.75
2018-12-13T22:47:45.167Z,98080.66
2018-12-13T22:50:14.497Z,98079.30
2018-12-13T22:52:43.655Z,98081.36
2018-12-13T22:55:12.580Z,98081.08
2018-12-13T22:57:41.664Z,98083.84
2018-12-13T23:00:12.876Z,98078.14
2018-12-13T23:02:41.825Z,98084.83
2018-12-13T23:05:10.694Z,98085.07
2018-12-13T23:07:39.416Z,98089.92
2018-12-13T23:10:08.552Z,98088.29
2018-12-13T23:12:37.292Z,98090.21
2018-12-13T23:15:06.484Z,98090.45
2018-12-13T23:17:35.218Z,98084.97
2018-12-13T23:20:04.331Z,98081.56
2018-12-13T23:22:33.027Z,98079.36
2018-12-13T23:25:01.761Z,98077.75
2018-12-13T23:27:30.447Z,98080.20
2018-12-13T23:29:59.265Z,98085.06
2018-12-13T23:32:28.139Z,98081.49
2018-12-13T23:34:56.858Z,98087.34
2018-12-13T23:37:25.677Z,98085.34
2018-12-13T23:39:54.416Z,98079.33
2018-12-13T23:42:23.222Z,98085.94
2018-12-13T23:44:51.961Z,98089.55
2018-12-13T23:47:20.729Z,98084.50
2018-12-13T23:49:49.463Z,98084.39
2018-12-13T23:52:18.220Z,98085.30
2018-12-13T23:54:47.012Z,98078.94
2018-12-13T23:57:15.789Z,98084.78
2018-12-13T23:59:44.599Z,98076.56
